Terminal Aerodrome Forecast
Issued by NWS

Home | Current Version | Previous Version | Graphics & Text | Print | Product List | Glossary On
Versions: 1 2 3 4 5 6 7 8 9 10 11 12 13 14 15 16 17
000
FTUS43 KICT 241725
TAFSLN
TAF
KSLN 241725Z 2418/2518 33008KT 4SM BR OVC004
     FM241900 30007KT 5SM BR OVC008
     FM242000 30010KT P6SM BKN015
     FM242100 30012KT P6SM BKN035
     FM242300 30012KT P6SM SCT200
     FM250500 27008KT P6SM FEW200=

USA.gov is the U.S. government's official web portal to all federal, state and local government web resources and services.